Flagg, IL

8:46 AM CST on February 20, 2017 (GMT -0600)
MUP086 | | Change Station

Elev 780 ft 41.90 °N, 89.14 °W | Updated 12 hours ago

Mostly Cloudy
Mostly Cloudy
50.0 °F
Feels Like 50.0 °F
N
-
Wind Variable Wind from North

Today
High -- | Low -- °F
--% Chance of Precip.
Yesterday
High -- | Low -- °F
Precip. -- in
Pressure 30.08 in
Visibility 1.8 miles
Clouds Mostly Cloudy 300 ft
Mostly Cloudy 3300 ft
Dew Point Not available.
Humidity Not available.
Rainfall in
Snow Depth Not available.
6:44 AM 5:36 PM
Waning Crescent, 33% visible
METAR KRPJ 201435Z AUTO 13007KT 1 3/4SM BR BKN003 BKN033 07/07 A3008 RMK AO2 T00730070
Pressure 30.08 in
Visibility 1.8 miles
Clouds Mostly Cloudy 300 ft
Mostly Cloudy 3300 ft
Dew Point Not available.
Humidity Not available.
Rainfall in
Snow Depth Not available.
6:44 AM 5:36 PM
Waning Crescent, 33% visible
METAR KRPJ 201435Z AUTO 13007KT 1 3/4SM BR BKN003 BKN033 07/07 A3008 RMK AO2 T00730070

Get Your Daily Forecast Email!

Thanks for signing up!

Be on the lookout for a verification email in your inbox.

You'll start receiving the daily forecast at 8 AM.

×

10-Day Weather Forecast

Almanac

Astronomy

Feb. 20, 2017 Rise Set
Actual Time
Civil Twilight
Nautical Twilight
Astronomical Twilight
Moon
Length of Visible Light
Length of Day
Tomorrow will be .
, % of the Moon is Illuminated

Today's Extremes

State Highs State Lows

Community

WunderPhotos

Upload Photos

1,962,540 photos uploaded!

WunderBlog® & News

Nearby

Air Quality

  Air Quality AQ Index Pollutant
Not available.

Snow Depth

Station Depth Elevation

Earthquake Activity

City Distance Mag. Time & Date
Minimum magnitude displayed is 2.5.

Coastal Water Temperatures

Place Temperature

Stations

Nearby Weather Stations

Station Location Temp. Windchill Dew Point Humidity Wind Precip. Elev Updated Type
                   

Watches & Warnings

There are currently no watches in effect.